Time;durP1;ratioP1;P1;durP2;ratioP2;P2;SDS_P1;SDS_P2;PMS_P1;PMS_P2;Temp;Humidity;BMP_temperature;BMP_pressure;BME280_temperature;BME280_humidity;BME280_pressure;Samples;Min_cycle;Max_cycle;Signal;HPM_P1;HPM_P2
2023/10/05 00:02:21;;;;;;;16.20;14.60;;;;;;;6.62;100.00;98772.86;106881;1278;25279;-80
2023/10/05 00:04:50;;;;;;;17.30;15.00;;;;;;;6.60;100.00;98766.33;106859;1270;22643;-80
2023/10/05 00:07:30;;;;;;;15.80;14.20;;;;;;;6.60;100.00;98762.90;106959;1278;25476;-80
2023/10/05 00:10:00;;;;;;;19.10;15.10;;;;;;;6.62;100.00;98760.61;106843;1278;22535;-80
2023/10/05 00:12:30;;;;;;;18.60;16.60;;;;;;;6.63;100.00;98757.52;106810;1278;25448;-80
2023/10/05 00:15:23;;;;;;;17.90;16.00;;;;;;;6.64;100.00;98760.36;106860;1275;22529;-81
2023/10/05 00:17:48;;;;;;;18.70;15.90;;;;;;;6.63;100.00;98762.48;106905;1278;24988;-81
2023/10/05 00:20:25;;;;;;;18.00;16.10;;;;;;;6.67;100.00;98761.79;107119;1278;22689;-80
2023/10/05 00:22:56;;;;;;;17.20;15.60;;;;;;;6.68;100.00;98757.95;107050;1278;22801;-80
2023/10/05 00:25:27;;;;;;;17.10;15.30;;;;;;;6.72;100.00;98756.38;106961;1278;24235;-79
2023/10/05 00:27:56;;;;;;;15.10;13.60;;;;;;;6.72;100.00;98756.16;106655;1269;22552;-82
2023/10/05 00:30:24;;;;;;;16.70;13.60;;;;;;;6.72;100.00;98755.84;106957;1278;25542;-80
2023/10/05 00:32:56;;;;;;;17.70;15.00;;;;;;;6.72;100.00;98754.34;107049;1269;22547;-81
2023/10/05 00:35:29;;;;;;;16.80;14.60;;;;;;;6.70;100.00;98750.08;106915;1278;24368;-80
2023/10/05 00:38:04;;;;;;;15.80;14.10;;;;;;;6.64;100.00;98747.55;106992;1278;26227;-80
2023/10/05 00:40:37;;;;;;;16.30;14.60;;;;;;;6.60;100.00;98743.17;106987;1278;25413;-80
2023/10/05 00:43:23;;;;;;;22.80;15.20;;;;;;;6.59;100.00;98745.80;106903;1278;22534;-81
2023/10/05 00:45:56;;;;;;;16.80;15.20;;;;;;;6.60;100.00;98743.93;107070;1275;22550;-81
2023/10/05 00:48:47;;;;;;;16.70;14.90;;;;;;;6.63;100.00;98741.88;107075;1278;23282;-80
2023/10/05 00:51:23;;;;;;;16.70;14.60;;;;;;;6.67;100.00;98741.75;106978;1278;23274;-81
2023/10/05 00:53:53;;;;;;;18.30;15.90;;;;;;;6.68;100.00;98736.52;106731;1272;130629;-80
2023/10/05 00:56:22;;;;;;;15.90;14.30;;;;;;;6.69;100.00;98736.14;106978;1278;25281;-81
2023/10/05 00:58:55;;;;;;;17.70;15.80;;;;;;;6.70;100.00;98732.19;106900;1276;22538;-80
2023/10/05 01:01:27;;;;;;;16.00;13.70;;;;;;;6.67;100.00;98733.67;106900;1263;22539;-81
2023/10/05 01:06:49;;;;;;;17.50;15.70;;;;;;;6.60;100.00;98732.85;106932;1278;25226;-81
2023/10/05 01:09:52;;;;;;;16.20;14.40;;;;;;;6.60;100.00;98729.69;106915;1279;22614;-81
2023/10/05 01:14:51;;;;;;;15.50;13.90;;;;;;;6.64;100.00;98720.79;106873;1278;22623;-80
2023/10/05 01:17:20;;;;;;;15.80;14.10;;;;;;;6.68;100.00;98716.48;106788;1279;22556;-79
2023/10/05 01:19:56;;;;;;;16.50;13.10;;;;;;;6.73;100.00;98712.52;106890;1278;23243;-80
2023/10/05 01:22:39;;;;;;;16.00;14.40;;;;;;;6.76;100.00;98708.75;106458;1278;25284;-80
2023/10/05 01:25:12;;;;;;;16.60;12.90;;;;;;;6.80;100.00;98710.06;106858;1278;22560;-80
2023/10/05 01:27:44;;;;;;;14.90;13.10;;;;;;;6.80;100.00;98709.59;106829;1278;25277;-80
2023/10/05 01:30:13;;;;;;;15.70;14.10;;;;;;;6.83;100.00;98707.52;106813;1278;22528;-80
2023/10/05 01:32:42;;;;;;;15.40;13.80;;;;;;;6.85;100.00;98706.89;106886;1278;25208;-80
2023/10/05 01:35:13;;;;;;;15.60;14.00;;;;;;;6.80;100.00;98704.44;106939;1276;23274;-80
2023/10/05 01:37:45;;;;;;;15.80;13.20;;;;;;;6.80;100.00;98702.35;106918;1278;22545;-80
2023/10/05 01:42:47;;;;;;;13.80;11.90;;;;;;;6.86;100.00;98696.50;106793;1278;25474;-78
2023/10/05 01:45:16;;;;;;;14.10;12.60;;;;;;;6.87;100.00;98693.03;107677;1273;22637;-80
2023/10/05 01:47:44;;;;;;;15.00;12.30;;;;;;;6.91;100.00;98682.61;108964;1278;23948;-80
2023/10/05 01:50:22;;;;;;;15.80;13.70;;;;;;;6.95;100.00;98674.13;109287;1272;23919;-79
2023/10/05 01:53:42;;;;;;;15.70;13.40;;;;;;;6.96;100.00;98678.46;107139;1278;24015;-80
2023/10/05 01:56:23;;;;;;;15.10;13.60;;;;;;;6.95;100.00;98679.00;107057;1278;25434;-80
2023/10/05 01:58:54;;;;;;;13.60;12.10;;;;;;;6.95;100.00;98674.23;107032;1278;23885;-80
2023/10/05 02:01:22;;;;;;;16.70;12.20;;;;;;;6.99;100.00;98677.53;106654;1275;22531;-81
2023/10/05 02:03:57;;;;;;;13.30;11.90;;;;;;;6.99;100.00;98675.34;106951;1278;22537;-81
2023/10/05 02:06:28;;;;;;;13.30;11.90;;;;;;;6.98;100.00;98672.97;106978;1263;22671;-82
2023/10/05 02:08:56;;;;;;;13.10;11.80;;;;;;;6.94;100.00;98669.99;107106;1278;24262;-82
2023/10/05 02:11:25;;;;;;;13.60;12.30;;;;;;;6.93;100.00;98667.03;106964;1278;22654;-81
2023/10/05 02:13:57;;;;;;;14.50;13.10;;;;;;;6.91;100.00;98661.08;106955;1263;22547;-80
2023/10/05 02:16:27;;;;;;;15.00;11.90;;;;;;;6.90;100.00;98659.02;106926;1278;22535;-81
2023/10/05 02:18:56;;;;;;;17.00;12.90;;;;;;;6.92;100.00;98658.83;106926;1264;24967;-81
2023/10/05 02:21:32;;;;;;;12.90;11.00;;;;;;;6.90;100.00;98663.00;106866;1278;22544;-81
2023/10/05 02:24:15;;;;;;;13.20;11.40;;;;;;;6.90;100.00;98664.55;106925;1278;25485;-81
2023/10/05 02:29:31;;;;;;;15.30;11.10;;;;;;;6.97;100.00;98658.50;107024;1271;24250;-81
2023/10/05 02:37:24;;;;;;;12.70;11.40;;;;;;;6.93;100.00;98654.35;106942;1264;22545;-81
2023/10/05 02:39:53;;;;;;;12.60;11.30;;;;;;;6.93;100.00;98654.45;106922;1271;23474;-81
2023/10/05 02:42:25;;;;;;;12.50;11.20;;;;;;;6.95;100.00;98654.25;106993;1274;22544;-82
2023/10/05 02:44:54;;;;;;;14.60;11.00;;;;;;;6.99;100.00;98654.60;107026;1275;24227;-82
2023/10/05 02:47:26;;;;;;;13.20;11.30;;;;;;;7.04;100.00;98651.38;106744;1264;24230;-81
2023/10/05 02:49:57;;;;;;;11.90;10.60;;;;;;;7.06;100.00;98656.80;106609;1278;24192;-81
2023/10/05 02:52:26;;;;;;;13.30;10.50;;;;;;;6.99;100.00;98649.72;106991;1275;23406;-82
2023/10/05 02:54:55;;;;;;;11.20;9.90;;;;;;;7.04;100.00;98659.95;107098;1278;22559;-82
2023/10/05 02:57:25;;;;;;;12.30;9.40;;;;;;;7.05;100.00;98658.50;107036;1278;25340;-83
2023/10/05 02:59:53;;;;;;;10.40;8.90;;;;;;;7.09;100.00;98654.63;107016;1278;23496;-82
2023/10/05 03:02:23;;;;;;;10.00;9.00;;;;;;;7.13;100.00;98649.77;106551;1278;25278;-81
2023/10/05 03:04:58;;;;;;;11.30;10.20;;;;;;;7.23;100.00;98651.88;106911;1264;22616;-81
2023/10/05 03:07:27;;;;;;;13.30;9.80;;;;;;;7.25;100.00;98649.25;106865;1268;23823;-80
2023/10/05 03:10:00;;;;;;;12.40;9.80;;;;;;;7.22;100.00;98650.41;106999;1278;25319;-80
2023/10/05 03:12:35;;;;;;;11.90;9.20;;;;;;;7.22;100.00;98653.21;106901;1267;22613;-80
2023/10/05 03:15:07;;;;;;;10.00;8.80;;;;;;;7.22;100.00;98652.13;106941;1278;22622;-80
2023/10/05 03:17:39;;;;;;;11.30;9.40;;;;;;;7.23;100.00;98650.64;106982;1267;23921;-81
2023/10/05 03:20:08;;;;;;;10.70;9.40;;;;;;;7.31;100.00;98653.75;107130;1278;24188;-81
2023/10/05 03:22:36;;;;;;;11.20;10.10;;;;;;;7.30;100.00;98655.67;107233;1278;22670;-80
2023/10/05 03:25:06;;;;;;;10.80;9.00;;;;;;;7.27;100.00;98651.21;106922;1277;22530;-81
2023/10/05 03:27:36;;;;;;;9.90;8.80;;;;;;;7.23;100.00;98651.13;107014;1276;24345;-81
2023/10/05 03:30:06;;;;;;;14.70;9.80;;;;;;;7.25;100.00;98653.77;107017;1278;24231;-81
2023/10/05 03:32:35;;;;;;;10.80;8.50;;;;;;;7.31;100.00;98656.22;107036;1278;25369;-81
2023/10/05 03:35:08;;;;;;;9.50;8.50;;;;;;;7.27;100.00;98655.77;107102;1278;22545;-81
2023/10/05 03:37:41;;;;;;;10.10;8.90;;;;;;;7.26;100.00;98653.23;107100;1267;22636;-81
2023/10/05 03:43:11;;;;;;;12.80;11.60;;;;;;;7.15;100.00;98654.98;106697;1279;25458;-81
2023/10/05 03:45:42;;;;;;;11.60;10.30;;;;;;;7.08;100.00;98653.05;106980;1267;24358;-81
2023/10/05 03:48:10;;;;;;;9.50;8.20;;;;;;;7.06;100.00;98658.52;106957;1278;22530;-81
2023/10/05 03:50:39;;;;;;;11.10;8.80;;;;;;;7.05;100.00;98664.24;106955;1270;22543;-81
2023/10/05 03:53:15;;;;;;;10.30;9.30;;;;;;;7.03;100.00;98655.91;106944;1278;22682;-82
2023/10/05 03:55:47;;;;;;;10.80;9.20;;;;;;;6.97;100.00;98656.20;107119;1278;22570;-82
2023/10/05 03:58:16;;;;;;;12.30;8.60;;;;;;;6.91;100.00;98663.27;106926;1278;24326;-82
2023/10/05 04:00:49;;;;;;;9.90;8.80;;;;;;;6.84;100.00;98666.92;106943;1267;25390;-82
2023/10/05 04:03:22;;;;;;;12.90;8.30;;;;;;;6.86;100.00;98663.39;107150;1263;22533;-81
2023/10/05 04:05:51;;;;;;;10.70;8.60;;;;;;;6.86;100.00;98661.52;107079;1267;23254;-82
2023/10/05 04:08:20;;;;;;;11.60;8.80;;;;;;;6.86;100.00;98655.27;106996;1264;22555;-83
2023/10/05 04:10:49;;;;;;;10.50;8.30;;;;;;;6.85;100.00;98654.60;106999;1267;22555;-81
2023/10/05 04:13:20;;;;;;;10.10;8.80;;;;;;;6.81;100.00;98655.05;107038;1270;25275;-81
2023/10/05 04:15:51;;;;;;;12.30;8.60;;;;;;;6.73;100.00;98652.58;106907;1278;25440;-81
2023/10/05 04:18:20;;;;;;;12.60;11.30;;;;;;;6.69;100.00;98652.70;106916;1264;25578;-82
2023/10/05 04:20:50;;;;;;;10.70;8.30;;;;;;;6.65;100.00;98652.67;106956;1273;22619;-81
2023/10/05 04:23:26;;;;;;;12.50;8.80;;;;;;;6.60;100.00;98649.40;106929;1276;23270;-81
2023/10/05 04:25:56;;;;;;;9.60;8.00;;;;;;;6.55;100.00;98648.40;107071;1263;22615;-81
2023/10/05 04:28:34;;;;;;;12.60;9.50;;;;;;;6.45;100.00;98644.66;107034;1278;25396;-81
2023/10/05 04:31:12;;;;;;;11.00;8.70;;;;;;;6.35;100.00;98641.52;107064;1266;22543;-81
2023/10/05 04:33:43;;;;;;;9.10;7.50;;;;;;;6.30;100.00;98631.98;106883;1278;25479;-81
2023/10/05 04:36:13;;;;;;;10.80;8.80;;;;;;;6.25;100.00;98629.69;107004;1275;22623;-81
2023/10/05 04:38:41;;;;;;;9.30;8.30;;;;;;;6.17;100.00;98630.79;106991;1264;24346;-81
2023/10/05 04:41:12;;;;;;;10.10;9.00;;;;;;;6.11;100.00;98632.29;106920;1257;23888;-82
2023/10/05 04:43:41;;;;;;;12.50;8.50;;;;;;;6.04;100.00;98631.61;107020;1273;24329;-80
2023/10/05 04:46:10;;;;;;;13.80;9.00;;;;;;;6.02;100.00;98630.52;107033;1274;22475;-81
2023/10/05 04:48:38;;;;;;;10.00;8.30;;;;;;;6.04;100.00;98630.11;107057;1263;23278;-81
2023/10/05 04:51:06;;;;;;;10.60;8.60;;;;;;;6.00;100.00;98630.81;107060;1276;23873;-80
2023/10/05 04:53:38;;;;;;;9.30;7.50;;;;;;;6.00;100.00;98630.64;106585;1271;22601;-81
2023/10/05 04:56:15;;;;;;;12.90;10.90;;;;;;;5.97;100.00;98632.70;106873;1263;22524;-81
2023/10/05 04:58:53;;;;;;;11.20;9.00;;;;;;;5.89;100.00;98629.92;106864;1278;22571;-81
2023/10/05 05:01:36;;;;;;;13.30;9.70;;;;;;;5.91;100.00;98624.88;107074;1257;23926;-81
2023/10/05 05:04:27;;;;;;;12.30;10.40;;;;;;;5.94;100.00;98621.16;106998;1276;25399;-81
2023/10/05 05:06:59;;;;;;;12.50;8.40;;;;;;;5.94;100.00;98622.77;106942;1263;23343;-81
2023/10/05 05:09:29;;;;;;;13.10;8.70;;;;;;;5.95;100.00;98619.52;107035;1262;24399;-82
2023/10/05 05:12:03;;;;;;;10.30;8.70;;;;;;;5.94;100.00;98615.23;107188;1274;22541;-81
2023/10/05 05:14:41;;;;;;;11.40;9.40;;;;;;;5.93;100.00;98611.73;107167;1278;24258;-82
2023/10/05 05:17:13;;;;;;;10.70;9.20;;;;;;;5.97;100.00;98610.25;107183;1278;23771;-82
2023/10/05 05:19:41;;;;;;;16.20;10.10;;;;;;;6.03;100.00;98605.64;106973;1278;22558;-82
2023/10/05 05:22:10;;;;;;;11.10;9.20;;;;;;;6.07;100.00;98602.31;106897;1278;23291;-82
2023/10/05 05:24:41;;;;;;;13.40;9.80;;;;;;;6.02;100.00;98608.85;106936;1271;25442;-82
2023/10/05 05:29:39;;;;;;;10.40;9.30;;;;;;;6.01;100.00;98617.40;109093;1278;22586;-82
2023/10/05 05:32:10;;;;;;;10.40;8.50;;;;;;;6.05;100.00;98614.59;109020;1263;25437;-81
2023/10/05 05:34:42;;;;;;;10.40;8.00;;;;;;;6.10;100.00;98613.32;109205;1278;23291;-81
2023/10/05 05:37:13;;;;;;;11.70;8.20;;;;;;;6.16;100.00;98614.82;107249;1272;22575;-82
2023/10/05 05:39:42;;;;;;;8.80;7.70;;;;;;;6.25;100.00;98613.27;107084;1279;22618;-83
2023/10/05 05:42:14;;;;;;;13.00;9.20;;;;;;;6.37;100.00;98615.95;107043;1279;22560;-82
2023/10/05 05:44:43;;;;;;;15.20;12.70;;;;;;;6.43;100.00;98620.33;107042;1278;25403;-81
2023/10/05 05:47:14;;;;;;;17.90;15.80;;;;;;;6.46;100.00;98616.34;106876;1278;22813;-82
2023/10/05 05:49:45;;;;;;;15.60;13.90;;;;;;;6.59;100.00;98611.66;107117;1278;23899;-82
2023/10/05 05:52:14;;;;;;;14.70;13.00;;;;;;;6.76;100.00;98604.87;106816;1279;22771;-81
2023/10/05 05:54:46;;;;;;;14.60;12.40;;;;;;;7.01;100.00;98609.06;107030;1278;24186;-81
2023/10/05 05:57:20;;;;;;;18.80;14.50;;;;;;;7.20;100.00;98610.04;107008;1276;22531;-82
2023/10/05 05:59:49;;;;;;;16.50;12.90;;;;;;;7.36;100.00;98609.65;107010;1278;24197;-81
2023/10/05 06:02:17;;;;;;;16.30;12.80;;;;;;;7.55;100.00;98603.69;106950;1278;22686;-81
2023/10/05 06:04:45;;;;;;;16.10;13.00;;;;;;;7.72;100.00;98610.25;106946;1275;25741;-80
2023/10/05 06:07:13;;;;;;;16.30;12.60;;;;;;;7.88;100.00;98608.44;106949;1271;22560;-83
2023/10/05 06:09:45;;;;;;;18.00;11.50;;;;;;;8.07;100.00;98612.40;106937;1278;24259;-81
2023/10/05 06:12:16;;;;;;;12.50;10.70;;;;;;;8.29;100.00;98604.81;107083;1262;22734;-81
2023/10/05 06:14:44;;;;;;;13.60;10.90;;;;;;;8.51;100.00;98612.56;107043;1262;22544;-82
2023/10/05 06:17:12;;;;;;;17.40;11.50;;;;;;;8.70;100.00;98611.92;106960;1278;23890;-82
2023/10/05 06:19:40;;;;;;;16.30;12.10;;;;;;;8.88;100.00;98609.33;106835;1276;22554;-81
2023/10/05 06:22:08;;;;;;;13.60;11.50;;;;;;;9.01;100.00;98601.64;106972;1275;22534;-81
2023/10/05 06:24:41;;;;;;;10.60;8.70;;;;;;;9.13;100.00;98605.21;106993;1278;22524;-79
2023/10/05 06:27:09;;;;;;;10.00;7.20;;;;;;;9.68;100.00;98596.54;107011;1278;22517;-78
2023/10/05 06:29:36;;;;;;;9.70;7.40;;;;;;;10.59;100.00;98597.73;106931;1267;25366;-78
2023/10/05 06:32:04;;;;;;;11.10;9.60;;;;;;;11.34;100.00;98598.38;106913;1262;22643;-79
2023/10/05 06:34:34;;;;;;;13.70;8.90;;;;;;;11.85;100.00;98593.10;106516;1275;22772;-77
2023/10/05 06:37:03;;;;;;;14.20;10.40;;;;;;;12.27;100.00;98594.61;106886;1263;22812;-78
2023/10/05 06:39:32;;;;;;;17.80;14.20;;;;;;;12.67;100.00;98590.21;106869;1278;25362;-78
2023/10/05 06:42:00;;;;;;;19.00;15.70;;;;;;;12.87;100.00;98592.73;106875;1275;22537;-83
2023/10/05 06:44:30;;;;;;;29.90;16.80;;;;;;;12.85;100.00;98597.38;107175;1275;22732;-77
2023/10/05 06:47:02;;;;;;;26.90;17.50;;;;;;;12.63;100.00;98602.60;106604;1270;26044;-78
2023/10/05 06:49:30;;;;;;;23.10;18.00;;;;;;;12.32;100.00;98604.20;107038;1278;22570;-77
2023/10/05 06:51:58;;;;;;;19.30;14.70;;;;;;;12.05;100.00;98610.91;106664;1272;22664;-78
2023/10/05 06:54:26;;;;;;;17.80;11.80;;;;;;;11.80;100.00;98608.77;106635;1272;25440;-80
2023/10/05 06:56:55;;;;;;;16.60;12.00;;;;;;;11.62;100.00;98602.17;107105;1275;23483;-79
2023/10/05 06:59:25;;;;;;;15.20;10.40;;;;;;;11.47;100.00;98599.75;106690;1278;23922;-81
2023/10/05 07:01:53;;;;;;;14.90;10.70;;;;;;;11.37;100.00;98610.27;107027;1269;22547;-80
2023/10/05 07:04:24;;;;;;;14.40;11.40;;;;;;;11.28;100.00;98618.52;107204;1262;24331;-81
2023/10/05 07:06:53;;;;;;;13.10;11.70;;;;;;;11.21;100.00;98619.78;107029;1269;25440;-80
2023/10/05 07:09:26;;;;;;;14.60;11.80;;;;;;;11.20;100.00;98619.36;106968;1275;23230;-80
2023/10/05 07:11:54;;;;;;;15.50;11.60;;;;;;;11.26;100.00;98618.53;107367;1264;24291;-80
2023/10/05 07:14:24;;;;;;;14.20;11.30;;;;;;;11.36;100.00;98620.45;107184;1264;23882;-79
2023/10/05 07:16:55;;;;;;;14.00;11.00;;;;;;;11.42;100.00;98618.27;106974;1262;22560;-81
2023/10/05 07:19:23;;;;;;;13.00;11.10;;;;;;;11.50;100.00;98621.05;107389;1278;24363;-81
2023/10/05 07:21:51;;;;;;;15.10;9.70;;;;;;;11.59;100.00;98619.98;107043;1263;22569;-79
2023/10/05 07:24:19;;;;;;;11.10;8.80;;;;;;;11.71;100.00;98619.34;107065;1278;23928;-80
2023/10/05 07:26:47;;;;;;;10.90;8.60;;;;;;;11.84;100.00;98618.07;106638;1275;22657;-81
2023/10/05 07:29:15;;;;;;;12.20;8.90;;;;;;;11.92;100.00;98616.31;107020;1278;22898;-80
2023/10/05 07:31:58;;;;;;;9.60;7.90;;;;;;;11.99;99.79;98620.16;106653;1278;24337;-80
2023/10/05 07:34:26;;;;;;;13.00;7.40;;;;;;;12.08;100.00;98616.70;106616;1278;22541;-79
2023/10/05 07:36:54;;;;;;;10.40;7.60;;;;;;;12.20;99.91;98620.75;107018;1256;25495;-80
2023/10/05 07:39:23;;;;;;;10.70;8.10;;;;;;;12.30;97.81;98621.16;107087;1262;25504;-79
2023/10/05 07:41:51;;;;;;;9.40;7.50;;;;;;;12.34;98.29;98624.39;107104;1278;22530;-80
2023/10/05 07:44:19;;;;;;;10.10;7.00;;;;;;;12.40;99.31;98618.16;107176;1272;22610;-81
2023/10/05 07:46:48;;;;;;;10.50;7.60;;;;;;;12.42;96.67;98619.69;107068;1275;23956;-81
2023/10/05 07:49:16;;;;;;;13.70;8.30;;;;;;;12.37;95.34;98623.86;106618;1278;22780;-81
2023/10/05 07:51:44;;;;;;;9.90;7.50;;;;;;;12.33;94.61;98624.74;107049;1264;24260;-80
2023/10/05 07:54:12;;;;;;;13.40;7.80;;;;;;;12.27;94.72;98622.22;106676;1262;22583;-79
2023/10/05 07:56:40;;;;;;;13.40;8.30;;;;;;;12.24;93.59;98631.50;107132;1278;24287;-80
2023/10/05 07:59:08;;;;;;;11.60;7.60;;;;;;;12.17;94.50;98629.81;107286;1264;23407;-80
2023/10/05 08:01:36;;;;;;;11.50;8.00;;;;;;;12.17;94.22;98625.88;107215;1263;22582;-80
2023/10/05 08:04:04;;;;;;;13.30;8.20;;;;;;;12.18;94.16;98626.73;107152;1278;22582;-80
2023/10/05 08:06:32;;;;;;;15.50;8.60;;;;;;;12.20;95.04;98619.23;107316;1264;25566;-80
2023/10/05 08:09:00;;;;;;;11.90;8.30;;;;;;;12.25;93.62;98623.34;107188;1272;22673;-80
2023/10/05 08:11:28;;;;;;;11.00;8.50;;;;;;;12.24;93.03;98618.42;107003;1275;25424;-80
2023/10/05 08:13:59;;;;;;;13.30;8.70;;;;;;;12.27;93.76;98618.65;106947;1278;22542;-78
2023/10/05 08:16:28;;;;;;;12.70;8.30;;;;;;;12.38;93.39;98613.42;107040;1278;24250;-80
2023/10/05 08:18:56;;;;;;;10.10;7.60;;;;;;;12.47;92.86;98615.17;107006;1275;22999;-79
2023/10/05 08:21:24;;;;;;;9.10;7.10;;;;;;;12.55;92.94;98616.02;107041;1278;23462;-80
2023/10/05 08:23:52;;;;;;;12.30;7.80;;;;;;;12.59;92.39;98613.52;107046;1278;25539;-80
2023/10/05 08:26:20;;;;;;;11.40;7.70;;;;;;;12.62;91.41;98613.39;107037;1278;25365;-80
2023/10/05 08:28:49;;;;;;;10.50;7.80;;;;;;;12.68;91.27;98612.95;106961;1279;25521;-79
2023/10/05 08:31:23;;;;;;;9.30;6.60;;;;;;;12.83;91.65;98612.50;106615;1269;24237;-79
2023/10/05 08:33:54;;;;;;;9.70;7.40;;;;;;;13.02;91.58;98607.98;106707;1275;22647;-80
2023/10/05 08:36:23;;;;;;;10.50;7.50;;;;;;;13.22;90.49;98608.50;106751;1278;22997;-80
2023/10/05 08:38:54;;;;;;;7.80;6.20;;;;;;;13.32;88.70;98606.77;107005;1278;25335;-79
2023/10/05 08:41:34;;;;;;;9.70;6.20;;;;;;;13.36;88.98;98603.10;106965;1267;24115;-78
2023/10/05 08:44:13;;;;;;;8.90;6.20;;;;;;;13.44;87.99;98601.54;106679;1278;24362;-79
2023/10/05 08:46:43;;;;;;;8.60;6.10;;;;;;;13.51;87.16;98594.71;107058;1278;25312;-79
2023/10/05 08:49:13;;;;;;;9.90;7.50;;;;;;;13.60;87.34;98585.38;107252;1278;22717;-79
2023/10/05 08:51:41;;;;;;;12.50;6.50;;;;;;;13.75;87.38;98583.77;107283;1273;24813;-79
2023/10/05 08:54:27;;;;;;;9.80;6.60;;;;;;;13.93;86.84;98585.06;107608;1272;22579;-78
2023/10/05 08:56:57;;;;;;;14.40;8.00;;;;;;;14.12;86.55;98590.36;107006;1262;22607;-78
2023/10/05 08:59:29;;;;;;;9.30;6.50;;;;;;;14.24;85.93;98585.15;107000;1278;24073;-78
2023/10/05 09:01:59;;;;;;;21.70;11.90;;;;;;;14.34;84.25;98589.27;107125;1278;22658;-78
2023/10/05 09:04:43;;;;;;;51.70;25.00;;;;;;;14.44;83.62;98585.55;107040;1278;25357;-77
2023/10/05 09:07:35;;;;;;;25.40;11.80;;;;;;;14.54;82.66;98583.44;107091;1278;22882;-79
2023/10/05 09:10:05;;;;;;;17.20;8.30;;;;;;;14.65;81.37;98588.98;107233;1268;23883;-79
2023/10/05 09:12:35;;;;;;;22.20;10.40;;;;;;;14.73;80.68;98583.81;107317;1278;22588;-79
2023/10/05 09:15:04;;;;;;;17.30;7.80;;;;;;;14.84;78.49;98582.23;107272;1262;25937;-78
2023/10/05 09:17:34;;;;;;;8.50;5.40;;;;;;;14.94;77.66;98584.55;107409;1263;22609;-80
2023/10/05 09:20:30;;;;;;;7.90;4.80;;;;;;;14.99;76.52;98584.13;107140;1278;25506;-78
2023/10/05 09:23:06;;;;;;;6.70;4.10;;;;;;;15.08;76.29;98585.33;106821;1278;25325;-79
2023/10/05 09:25:36;;;;;;;8.40;4.10;;;;;;;15.14;75.28;98583.71;107222;1278;24291;-77
2023/10/05 09:28:15;;;;;;;7.50;4.40;;;;;;;15.22;75.46;98576.36;107124;1278;24241;-79
2023/10/05 09:30:55;;;;;;;7.40;4.50;;;;;;;15.29;74.66;98574.29;106722;1278;22566;-82
2023/10/05 09:33:26;;;;;;;8.20;4.80;;;;;;;15.40;73.68;98574.36;107136;1278;22528;-78
2023/10/05 09:36:07;;;;;;;7.30;4.10;;;;;;;15.47;72.57;98570.05;107325;1265;25850;-79
2023/10/05 09:38:40;;;;;;;7.50;3.90;;;;;;;15.51;71.87;98568.84;106755;1274;22935;-80
2023/10/05 09:41:09;;;;;;;8.70;4.80;;;;;;;15.55;71.76;98569.50;107117;1278;26499;-78
2023/10/05 09:43:42;;;;;;;7.90;4.90;;;;;;;15.64;72.24;98566.53;106630;1263;22531;-78
2023/10/05 09:46:11;;;;;;;7.80;3.90;;;;;;;15.76;70.55;98575.09;106762;1278;24333;-78
2023/10/05 09:48:40;;;;;;;8.80;4.70;;;;;;;15.79;70.46;98572.20;106662;1267;22650;-79
2023/10/05 09:51:11;;;;;;;12.40;4.80;;;;;;;15.81;69.44;98573.30;107063;1278;26622;-79
2023/10/05 09:53:42;;;;;;;8.20;4.20;;;;;;;15.83;69.05;98565.17;107084;1263;26624;-79
2023/10/05 09:56:14;;;;;;;10.20;4.50;;;;;;;15.89;68.95;98558.55;107257;1278;23559;-79
2023/10/05 09:58:52;;;;;;;9.30;4.70;;;;;;;16.04;69.36;98567.55;107249;1265;22538;-78
2023/10/05 10:01:21;;;;;;;8.00;4.20;;;;;;;16.15;67.11;98565.55;106732;1278;25350;-79
2023/10/05 10:03:53;;;;;;;8.40;4.80;;;;;;;16.13;66.71;98565.33;106826;1272;22541;-80
2023/10/05 10:06:28;;;;;;;8.50;4.20;;;;;;;16.08;65.96;98559.05;107093;1278;22666;-81
2023/10/05 10:09:09;;;;;;;7.80;4.30;;;;;;;16.01;66.76;98553.14;107116;1278;22565;-80
2023/10/05 10:11:37;;;;;;;6.30;4.20;;;;;;;16.02;66.35;98565.60;107031;1278;25242;-80
2023/10/05 10:14:06;;;;;;;9.90;4.70;;;;;;;15.98;65.71;98553.52;107012;1273;22660;-80
2023/10/05 10:16:41;;;;;;;6.60;3.70;;;;;;;16.01;65.68;98543.56;106986;1275;25284;-79
2023/10/05 10:19:19;;;;;;;7.40;4.20;;;;;;;16.13;66.59;98540.45;106841;1263;25343;-80
2023/10/05 10:21:53;;;;;;;8.60;4.10;;;;;;;16.29;66.85;98536.60;106992;1278;22554;-80
2023/10/05 10:24:24;;;;;;;8.00;4.30;;;;;;;16.46;66.59;98530.64;107038;1275;23910;-78
2023/10/05 10:27:08;;;;;;;7.90;4.70;;;;;;;16.53;65.53;98526.70;106660;1264;24205;-79
2023/10/05 10:29:56;;;;;;;7.80;4.30;;;;;;;16.49;65.12;98522.60;106977;1278;22712;-79
2023/10/05 10:32:31;;;;;;;6.20;3.90;;;;;;;16.46;64.65;98521.27;106635;1272;25353;-79
2023/10/05 10:35:26;;;;;;;9.30;4.30;;;;;;;16.49;63.91;98518.35;106626;1278;22534;-78
2023/10/05 10:38:05;;;;;;;8.10;4.60;;;;;;;16.61;63.22;98525.63;106948;1275;22589;-80
2023/10/05 10:40:33;;;;;;;7.50;4.30;;;;;;;16.65;62.96;98517.04;106998;1275;22940;-80
2023/10/05 10:45:49;;;;;;;12.40;4.60;;;;;;;16.82;62.40;98509.83;107027;1278;22720;-77
2023/10/05 10:48:22;;;;;;;8.10;4.80;;;;;;;16.89;61.95;98504.98;106597;1278;22590;-83
2023/10/05 10:50:52;;;;;;;8.00;4.40;;;;;;;17.00;61.97;98511.30;106971;1278;22570;-78
2023/10/05 10:53:25;;;;;;;6.40;4.40;;;;;;;17.05;61.12;98503.16;106788;1272;23864;-75
2023/10/05 10:56:03;;;;;;;8.20;4.10;;;;;;;17.10;61.36;98503.23;107206;1267;23401;-74
2023/10/05 10:58:34;;;;;;;8.80;4.10;;;;;;;17.14;59.20;98510.94;106795;1278;22520;-75
2023/10/05 11:01:03;;;;;;;6.60;4.30;;;;;;;17.07;59.59;98507.66;106736;1275;22526;-74
2023/10/05 11:03:36;;;;;;;11.80;4.60;;;;;;;17.00;58.96;98506.23;106733;1272;25276;-75
2023/10/05 11:06:09;;;;;;;9.80;4.60;;;;;;;16.97;59.23;98504.11;106590;1278;22534;-75
2023/10/05 11:08:40;;;;;;;7.50;4.80;;;;;;;17.08;59.64;98492.23;106875;1270;22581;-78
2023/10/05 11:11:19;;;;;;;9.60;4.70;;;;;;;17.24;59.90;98489.06;106613;1268;22503;-77
2023/10/05 11:13:49;;;;;;;6.30;4.00;;;;;;;17.45;59.72;98492.77;106905;1273;25473;-75
2023/10/05 11:16:19;;;;;;;8.50;3.90;;;;;;;17.64;58.64;98487.61;106716;1263;22636;-76
2023/10/05 11:18:57;;;;;;;5.40;3.90;;;;;;;17.78;57.54;98485.98;106568;1275;22537;-77
2023/10/05 11:21:27;;;;;;;6.20;3.60;;;;;;;17.83;57.01;98485.70;106677;1278;23324;-75
2023/10/05 11:24:06;;;;;;;6.40;4.20;;;;;;;17.78;57.42;98485.82;107073;1272;25202;-75
2023/10/05 11:29:33;;;;;;;9.10;3.90;;;;;;;17.69;57.24;98480.56;106785;1272;24379;-74
2023/10/05 11:32:12;;;;;;;9.10;5.30;;;;;;;17.41;57.51;98478.75;106521;1276;23928;-76
2023/10/05 11:35:04;;;;;;;30.40;12.90;;;;;;;17.25;58.02;98469.91;106591;1278;22718;-75
2023/10/05 11:37:56;;;;;;;7.90;4.20;;;;;;;17.23;58.42;98465.85;106611;1272;22627;-75
2023/10/05 11:40:31;;;;;;;5.50;3.70;;;;;;;17.25;58.84;98448.34;106639;1278;22535;-76
2023/10/05 11:43:04;;;;;;;7.80;4.50;;;;;;;17.18;59.04;98451.74;107218;1262;25806;-75
2023/10/05 11:45:34;;;;;;;8.40;4.70;;;;;;;17.20;59.09;98452.65;107158;1275;22546;-76
2023/10/05 11:48:11;;;;;;;13.50;4.50;;;;;;;17.07;59.14;98453.77;106677;1278;26618;-76
2023/10/05 11:50:51;;;;;;;10.50;4.00;;;;;;;17.09;59.45;98447.23;106999;1262;24429;-76
2023/10/05 11:53:24;;;;;;;6.60;4.20;;;;;;;17.07;59.43;98443.52;106545;1278;22543;-75
2023/10/05 11:55:52;;;;;;;7.50;4.20;;;;;;;17.24;58.49;98443.54;106607;1278;22632;-76
2023/10/05 11:58:22;;;;;;;8.10;4.00;;;;;;;17.44;58.03;98436.11;107053;1267;24155;-77
2023/10/05 12:00:51;;;;;;;6.60;4.20;;;;;;;17.69;58.13;98434.30;106608;1278;22540;-77
2023/10/05 12:03:19;;;;;;;9.30;4.00;;;;;;;17.91;57.75;98431.95;106597;1265;22783;-76
2023/10/05 12:05:47;;;;;;;5.70;4.00;;;;;;;17.88;57.75;98431.77;106603;1278;22579;-77
2023/10/05 12:08:16;;;;;;;5.60;3.70;;;;;;;17.83;57.89;98432.67;106536;1263;22522;-77